sensor_id;sensor_type;location;lat;lon;timestamp;temperature;humidity
55693;DHT22;41590;53.366;5.212;2023-02-28T06:49:11;2.90;99.90
55693;DHT22;41590;53.366;5.212;2023-02-28T06:51:40;6.80;99.90
55693;DHT22;41590;53.366;5.212;2023-02-28T06:54:07;5.40;99.90
55693;DHT22;41590;53.366;5.212;2023-02-28T06:56:40;6.80;99.90
55693;DHT22;41590;53.366;5.212;2023-02-28T06:59:06;4.60;99.90
55693;DHT22;41590;53.366;5.212;2023-02-28T07:01:32;5.90;99.90
55693;DHT22;41590;53.366;5.212;2023-02-28T07:04:00;5.20;99.90
55693;DHT22;41590;53.366;5.212;2023-02-28T07:06:27;4.60;99.90
55693;DHT22;41590;53.366;5.212;2023-02-28T07:08:53;5.50;99.90
55693;DHT22;41590;53.366;5.212;2023-02-28T07:11:25;4.80;99.90
55693;DHT22;41590;53.366;5.212;2023-02-28T07:13:57;4.70;99.90
55693;DHT22;41590;53.366;5.212;2023-02-28T07:16:29;6.90;99.90
55693;DHT22;41590;53.366;5.212;2023-02-28T07:19:29;7.00;99.90
55693;DHT22;41590;53.366;5.212;2023-02-28T07:21:58;7.00;99.90
55693;DHT22;41590;53.366;5.212;2023-02-28T07:24:24;5.10;99.90
55693;DHT22;41590;53.366;5.212;2023-02-28T07:26:55;5.50;99.90
55693;DHT22;41590;53.366;5.212;2023-02-28T07:29:21;5.20;99.90
55693;DHT22;41590;53.366;5.212;2023-02-28T07:31:48;5.00;99.90
55693;DHT22;41590;53.366;5.212;2023-02-28T07:34:16;6.40;99.90
55693;DHT22;41590;53.366;5.212;2023-02-28T07:36:41;4.90;99.90
55693;DHT22;41590;53.366;5.212;2023-02-28T07:39:08;4.90;99.90
55693;DHT22;41590;53.366;5.212;2023-02-28T07:41:36;6.10;99.90
55693;DHT22;41590;53.366;5.212;2023-02-28T07:44:11;5.30;99.90
55693;DHT22;41590;53.366;5.212;2023-02-28T07:46:38;5.10;99.90
55693;DHT22;41590;53.366;5.212;2023-02-28T07:49:05;5.60;99.90
55693;DHT22;41590;53.366;5.212;2023-02-28T07:51:31;5.20;99.90
55693;DHT22;41590;53.366;5.212;2023-02-28T07:53:58;6.70;99.90
55693;DHT22;41590;53.366;5.212;2023-02-28T07:56:24;5.60;99.90
55693;DHT22;41590;53.366;5.212;2023-02-28T07:58:51;6.40;99.90
55693;DHT22;41590;53.366;5.212;2023-02-28T08:01:18;7.20;99.90
55693;DHT22;41590;53.366;5.212;2023-02-28T08:03:45;7.10;99.90
55693;DHT22;41590;53.366;5.212;2023-02-28T08:06:23;5.50;99.90
55693;DHT22;41590;53.366;5.212;2023-02-28T08:08:50;7.10;99.90
55693;DHT22;41590;53.366;5.212;2023-02-28T08:11:16;7.20;99.90
55693;DHT22;41590;53.366;5.212;2023-02-28T08:13:43;7.30;99.90
55693;DHT22;41590;53.366;5.212;2023-02-28T08:16:10;7.30;99.90
55693;DHT22;41590;53.366;5.212;2023-02-28T08:18:36;5.80;99.90
55693;DHT22;41590;53.366;5.212;2023-02-28T08:21:07;7.20;99.90
55693;DHT22;41590;53.366;5.212;2023-02-28T08:23:33;7.20;99.90
55693;DHT22;41590;53.366;5.212;2023-02-28T08:26:03;7.00;99.90
55693;DHT22;41590;53.366;5.212;2023-02-28T08:28:33;5.80;99.90
55693;DHT22;41590;53.366;5.212;2023-02-28T08:31:00;7.20;99.90
55693;DHT22;41590;53.366;5.212;2023-02-28T08:33:27;6.40;99.90
55693;DHT22;41590;53.366;5.212;2023-02-28T08:35:56;5.50;99.90
55693;DHT22;41590;53.366;5.212;2023-02-28T08:38:23;5.60;99.90
55693;DHT22;41590;53.366;5.212;2023-02-28T08:40:49;7.10;99.90
55693;DHT22;41590;53.366;5.212;2023-02-28T08:43:15;7.00;99.90
55693;DHT22;41590;53.366;5.212;2023-02-28T08:45:42;6.40;99.90
55693;DHT22;41590;53.366;5.212;2023-02-28T08:48:09;7.20;99.90
55693;DHT22;41590;53.366;5.212;2023-02-28T08:50:35;6.40;99.90
55693;DHT22;41590;53.366;5.212;2023-02-28T08:53:01;6.30;99.90
55693;DHT22;41590;53.366;5.212;2023-02-28T08:55:26;7.10;99.90
55693;DHT22;41590;53.366;5.212;2023-02-28T08:57:53;7.20;99.90
55693;DHT22;41590;53.366;5.212;2023-02-28T09:00:20;7.10;99.90
55693;DHT22;41590;53.366;5.212;2023-02-28T09:02:46;6.60;99.90
55693;DHT22;41590;53.366;5.212;2023-02-28T09:05:19;5.80;99.90
55693;DHT22;41590;53.366;5.212;2023-02-28T09:07:46;7.40;99.90
55693;DHT22;41590;53.366;5.212;2023-02-28T09:10:13;5.60;99.90
55693;DHT22;41590;53.366;5.212;2023-02-28T09:12:40;6.10;99.90
55693;DHT22;41590;53.366;5.212;2023-02-28T09:15:08;5.60;99.90
55693;DHT22;41590;53.366;5.212;2023-02-28T09:17:37;7.20;99.90
55693;DHT22;41590;53.366;5.212;2023-02-28T09:20:04;6.60;99.90
55693;DHT22;41590;53.366;5.212;2023-02-28T09:22:30;6.00;99.90
55693;DHT22;41590;53.366;5.212;2023-02-28T09:24:58;7.20;99.90
55693;DHT22;41590;53.366;5.212;2023-02-28T09:27:24;6.70;99.90
55693;DHT22;41590;53.366;5.212;2023-02-28T09:29:50;6.50;99.90
55693;DHT22;41590;53.366;5.212;2023-02-28T09:32:20;7.40;99.90
55693;DHT22;41590;53.366;5.212;2023-02-28T09:34:46;6.30;99.90
55693;DHT22;41590;53.366;5.212;2023-02-28T09:37:15;7.40;99.90
55693;DHT22;41590;53.366;5.212;2023-02-28T09:39:42;7.50;99.90
55693;DHT22;41590;53.366;5.212;2023-02-28T09:42:23;6.20;99.90
55693;DHT22;41590;53.366;5.212;2023-02-28T09:44:51;7.50;99.90
55693;DHT22;41590;53.366;5.212;2023-02-28T09:47:43;6.20;99.90
55693;DHT22;41590;53.366;5.212;2023-02-28T09:50:30;6.10;99.90
55693;DHT22;41590;53.366;5.212;2023-02-28T09:53:03;6.90;99.90
55693;DHT22;41590;53.366;5.212;2023-02-28T09:55:38;7.10;99.90
55693;DHT22;41590;53.366;5.212;2023-02-28T09:58:18;6.40;99.90
55693;DHT22;41590;53.366;5.212;2023-02-28T10:00:54;5.80;99.90
55693;DHT22;41590;53.366;5.212;2023-02-28T10:03:39;6.10;99.90
55693;DHT22;41590;53.366;5.212;2023-02-28T10:06:15;6.20;99.90
55693;DHT22;41590;53.366;5.212;2023-02-28T10:08:57;6.50;99.90
55693;DHT22;41590;53.366;5.212;2023-02-28T10:11:32;5.70;99.90
55693;DHT22;41590;53.366;5.212;2023-02-28T10:14:24;6.40;99.90
55693;DHT22;41590;53.366;5.212;2023-02-28T10:17:11;6.10;99.90
55693;DHT22;41590;53.366;5.212;2023-02-28T10:19:58;5.20;99.90
55693;DHT22;41590;53.366;5.212;2023-02-28T10:22:36;5.00;99.90
55693;DHT22;41590;53.366;5.212;2023-02-28T10:25:25;5.00;99.90
55693;DHT22;41590;53.366;5.212;2023-02-28T10:28:11;6.10;99.90
55693;DHT22;41590;53.366;5.212;2023-02-28T10:30:43;5.00;99.90
55693;DHT22;41590;53.366;5.212;2023-02-28T10:33:37;6.20;99.90
55693;DHT22;41590;53.366;5.212;2023-02-28T10:36:04;4.80;99.90
55693;DHT22;41590;53.366;5.212;2023-02-28T10:38:36;6.20;99.90
55693;DHT22;41590;53.366;5.212;2023-02-28T10:41:14;5.30;99.90
55693;DHT22;41590;53.366;5.212;2023-02-28T10:47:25;5.60;99.90
55693;DHT22;41590;53.366;5.212;2023-02-28T10:49:59;4.80;99.90
55693;DHT22;41590;53.366;5.212;2023-02-28T10:52:40;4.90;99.90
55693;DHT22;41590;53.366;5.212;2023-02-28T10:55:22;6.30;99.90
55693;DHT22;41590;53.366;5.212;2023-02-28T10:57:50;5.10;99.90
55693;DHT22;41590;53.366;5.212;2023-02-28T11:00:25;5.10;99.90
55693;DHT22;41590;53.366;5.212;2023-02-28T11:02:57;5.30;99.90
55693;DHT22;41590;53.366;5.212;2023-02-28T11:05:31;5.70;99.90
55693;DHT22;41590;53.366;5.212;2023-02-28T11:08:18;5.10;99.90
55693;DHT22;41590;53.366;5.212;2023-02-28T11:10:56;5.90;99.90
55693;DHT22;41590;53.366;5.212;2023-02-28T11:13:33;5.30;99.90
55693;DHT22;41590;53.366;5.212;2023-02-28T11:16:04;6.10;99.90
55693;DHT22;41590;53.366;5.212;2023-02-28T11:21:09;5.40;99.90
55693;DHT22;41590;53.366;5.212;2023-02-28T11:23:39;5.80;99.90
55693;DHT22;41590;53.366;5.212;2023-02-28T11:26:05;5.00;99.90
55693;DHT22;41590;53.366;5.212;2023-02-28T11:28:47;4.90;99.90
55693;DHT22;41590;53.366;5.212;2023-02-28T11:31:18;5.10;99.90
55693;DHT22;41590;53.366;5.212;2023-02-28T11:33:55;6.10;99.90
55693;DHT22;41590;53.366;5.212;2023-02-28T11:36:27;5.90;99.90
55693;DHT22;41590;53.366;5.212;2023-02-28T11:39:09;5.30;99.90
55693;DHT22;41590;53.366;5.212;2023-02-28T11:47:38;5.60;99.90
55693;DHT22;41590;53.366;5.212;2023-02-28T11:53:01;6.00;99.90
55693;DHT22;41590;53.366;5.212;2023-02-28T11:55:39;6.50;99.90
55693;DHT22;41590;53.366;5.212;2023-02-28T12:21:07;6.80;99.90
55693;DHT22;41590;53.366;5.212;2023-02-28T12:26:37;7.40;99.90
55693;DHT22;41590;53.366;5.212;2023-02-28T12:29:22;7.10;99.90
55693;DHT22;41590;53.366;5.212;2023-02-28T12:34:31;6.90;99.90
55693;DHT22;41590;53.366;5.212;2023-02-28T14:32:15;7.10;99.90
55693;DHT22;41590;53.366;5.212;2023-02-28T14:37:38;8.00;99.90
55693;DHT22;41590;53.366;5.212;2023-02-28T14:40:16;8.20;99.90
55693;DHT22;41590;53.366;5.212;2023-02-28T14:42:55;8.20;99.90
55693;DHT22;41590;53.366;5.212;2023-02-28T14:45:23;8.30;99.90
55693;DHT22;41590;53.366;5.212;2023-02-28T14:47:57;8.30;99.90
55693;DHT22;41590;53.366;5.212;2023-02-28T14:50:36;8.40;99.90
55693;DHT22;41590;53.366;5.212;2023-02-28T14:53:09;8.30;99.90
55693;DHT22;41590;53.366;5.212;2023-02-28T14:55:45;8.10;99.90
55693;DHT22;41590;53.366;5.212;2023-02-28T14:58:29;7.80;99.90
55693;DHT22;41590;53.366;5.212;2023-02-28T15:00:59;7.70;99.90
55693;DHT22;41590;53.366;5.212;2023-02-28T15:03:35;7.70;99.90
55693;DHT22;41590;53.366;5.212;2023-02-28T15:06:05;7.70;99.90
55693;DHT22;41590;53.366;5.212;2023-02-28T15:08:32;7.80;99.90
55693;DHT22;41590;53.366;5.212;2023-02-28T15:11:08;7.90;99.90
55693;DHT22;41590;53.366;5.212;2023-02-28T15:13:44;8.00;99.90
55693;DHT22;41590;53.366;5.212;2023-02-28T15:16:22;8.10;99.90
55693;DHT22;41590;53.366;5.212;2023-02-28T15:21:36;8.40;99.90
55693;DHT22;41590;53.366;5.212;2023-02-28T15:24:10;8.40;99.90
55693;DHT22;41590;53.366;5.212;2023-02-28T15:27:03;8.40;99.90
55693;DHT22;41590;53.366;5.212;2023-02-28T15:29:54;8.40;99.90
55693;DHT22;41590;53.366;5.212;2023-02-28T15:32:37;8.20;99.90
55693;DHT22;41590;53.366;5.212;2023-02-28T15:38:03;8.00;99.90
55693;DHT22;41590;53.366;5.212;2023-02-28T15:40:46;7.80;99.90
55693;DHT22;41590;53.366;5.212;2023-02-28T15:43:31;7.50;99.90
55693;DHT22;41590;53.366;5.212;2023-02-28T15:46:00;7.30;99.90
55693;DHT22;41590;53.366;5.212;2023-02-28T15:54:01;7.10;99.90
55693;DHT22;41590;53.366;5.212;2023-02-28T15:56:31;7.10;99.90
55693;DHT22;41590;53.366;5.212;2023-02-28T15:59:05;7.00;99.90
55693;DHT22;41590;53.366;5.212;2023-02-28T16:01:34;6.80;99.90
55693;DHT22;41590;53.366;5.212;2023-02-28T16:04:05;6.70;99.90
55693;DHT22;41590;53.366;5.212;2023-02-28T16:06:42;6.70;99.90
55693;DHT22;41590;53.366;5.212;2023-02-28T16:09:16;6.70;99.90
55693;DHT22;41590;53.366;5.212;2023-02-28T16:11:46;6.60;99.90
55693;DHT22;41590;53.366;5.212;2023-02-28T16:14:18;6.60;99.90
55693;DHT22;41590;53.366;5.212;2023-02-28T16:20:30;6.50;99.90
55693;DHT22;41590;53.366;5.212;2023-02-28T16:22:56;6.50;99.90
55693;DHT22;41590;53.366;5.212;2023-02-28T16:25:40;6.40;99.90
55693;DHT22;41590;53.366;5.212;2023-02-28T16:28:15;6.50;99.90
55693;DHT22;41590;53.366;5.212;2023-02-28T16:30:43;6.40;99.90
55693;DHT22;41590;53.366;5.212;2023-02-28T16:33:10;6.30;99.90
55693;DHT22;41590;53.366;5.212;2023-02-28T16:35:41;6.40;99.90
55693;DHT22;41590;53.366;5.212;2023-02-28T16:38:08;6.10;99.90
55693;DHT22;41590;53.366;5.212;2023-02-28T16:41:05;5.60;99.90
55693;DHT22;41590;53.366;5.212;2023-02-28T16:47:23;6.10;99.90
55693;DHT22;41590;53.366;5.212;2023-02-28T16:49:58;5.70;99.90
55693;DHT22;41590;53.366;5.212;2023-02-28T16:52:30;5.70;99.90
55693;DHT22;41590;53.366;5.212;2023-02-28T16:55:01;5.40;99.90
55693;DHT22;41590;53.366;5.212;2023-02-28T16:57:33;5.50;99.90
55693;DHT22;41590;53.366;5.212;2023-02-28T17:00:02;5.50;99.90
55693;DHT22;41590;53.366;5.212;2023-02-28T17:02:37;5.10;99.90
55693;DHT22;41590;53.366;5.212;2023-02-28T17:05:16;5.20;99.90
55693;DHT22;41590;53.366;5.212;2023-02-28T17:07:50;5.10;99.90
55693;DHT22;41590;53.366;5.212;2023-02-28T17:10:28;4.90;99.90
55693;DHT22;41590;53.366;5.212;2023-02-28T17:12:55;4.20;99.90
55693;DHT22;41590;53.366;5.212;2023-02-28T17:15:22;4.60;99.90
55693;DHT22;41590;53.366;5.212;2023-02-28T17:17:48;4.70;99.90
55693;DHT22;41590;53.366;5.212;2023-02-28T17:20:20;4.50;99.90
55693;DHT22;41590;53.366;5.212;2023-02-28T17:22:53;3.70;99.90
55693;DHT22;41590;53.366;5.212;2023-02-28T17:30:17;4.00;99.90
55693;DHT22;41590;53.366;5.212;2023-02-28T17:32:45;3.30;99.90
55693;DHT22;41590;53.366;5.212;2023-02-28T17:35:11;3.20;99.90
55693;DHT22;41590;53.366;5.212;2023-02-28T17:37:38;3.30;99.90
55693;DHT22;41590;53.366;5.212;2023-02-28T17:40:05;4.00;99.90
55693;DHT22;41590;53.366;5.212;2023-02-28T17:42:31;3.70;99.90
55693;DHT22;41590;53.366;5.212;2023-02-28T17:54:51;3.30;99.90
55693;DHT22;41590;53.366;5.212;2023-02-28T17:57:17;2.70;99.90
55693;DHT22;41590;53.366;5.212;2023-02-28T17:59:43;3.20;99.90
55693;DHT22;41590;53.366;5.212;2023-02-28T18:02:13;3.00;99.90
55693;DHT22;41590;53.366;5.212;2023-02-28T18:04:39;2.50;99.90
55693;DHT22;41590;53.366;5.212;2023-02-28T18:07:11;1.90;99.90
55693;DHT22;41590;53.366;5.212;2023-02-28T18:09:37;2.50;99.90
